Time;durP1;ratioP1;P1;durP2;ratioP2;P2;SDS_P1;SDS_P2;PMS_P1;PMS_P2;Temp;Humidity;BMP_temperature;BMP_pressure;BME280_temperature;BME280_humidity;BME280_pressure;Samples;Min_cycle;Max_cycle;Signal;HPM_P1;HPM_P2
2024/04/13 00:01:10;;;;;;;2.93;1.70;;;17.50;94.40;;;;;;5558948;25;20522;-47
2024/04/13 00:03:41;;;;;;;2.40;1.70;;;17.50;94.50;;;;;;5559186;25;20491;-47
2024/04/13 00:06:09;;;;;;;2.13;1.60;;;17.50;94.50;;;;;;5551625;25;20846;-46
2024/04/13 00:08:40;;;;;;;2.83;1.80;;;17.50;94.40;;;;;;5560593;25;21020;-48
2024/04/13 00:11:08;;;;;;;1.50;1.30;;;17.40;94.30;;;;;;5557795;25;20470;-47
2024/04/13 00:13:38;;;;;;;1.97;1.67;;;17.40;94.40;;;;;;5547574;25;20451;-47
2024/04/13 00:16:08;;;;;;;2.97;1.67;;;17.50;94.50;;;;;;5557399;25;20456;-47
2024/04/13 00:18:40;;;;;;;1.80;1.60;;;17.40;94.40;;;;;;5560724;25;20805;-47
2024/04/13 00:21:08;;;;;;;2.37;1.57;;;17.40;94.40;;;;;;5556750;25;20530;-47
2024/04/13 00:23:38;;;;;;;1.70;1.60;;;17.40;94.30;;;;;;5560364;25;20466;-47
2024/04/13 00:26:06;;;;;;;2.10;1.50;;;17.50;94.40;;;;;;5549650;25;21068;-47
2024/04/13 00:28:36;;;;;;;2.17;1.97;;;17.40;94.40;;;;;;5553774;25;20466;-47
2024/04/13 00:31:04;;;;;;;2.00;1.67;;;17.40;94.30;;;;;;5558293;25;20502;-47
2024/04/13 00:33:41;;;;;;;2.03;1.67;;;17.40;94.40;;;;;;5550490;25;20587;-47
2024/04/13 00:36:10;;;;;;;1.80;1.70;;;17.40;94.30;;;;;;5556023;25;20499;-47
2024/04/13 00:38:39;;;;;;;2.80;1.87;;;17.40;94.40;;;;;;5532084;25;20458;-48
2024/04/13 00:41:07;;;;;;;2.03;1.83;;;17.40;94.40;;;;;;5568682;25;20574;-48
2024/04/13 00:43:36;;;;;;;3.77;1.90;;;17.40;94.40;;;;;;5549820;25;21047;-48
2024/04/13 00:46:07;;;;;;;1.53;1.40;;;17.40;94.40;;;;;;5563968;25;20467;-48
2024/04/13 00:48:42;;;;;;;2.27;1.83;;;17.40;94.40;;;;;;5560396;25;20534;-48
2024/04/13 00:51:12;;;;;;;2.33;2.13;;;17.40;94.40;;;;;;5555955;25;20474;-48
2024/04/13 00:53:43;;;;;;;3.53;1.97;;;17.40;94.20;;;;;;5558988;25;20860;-47
2024/04/13 00:56:11;;;;;;;1.80;1.70;;;17.40;94.30;;;;;;5559091;25;20474;-47
2024/04/13 00:58:43;;;;;;;1.70;1.53;;;17.40;94.20;;;;;;5556671;25;20530;-47
2024/04/13 01:01:13;;;;;;;3.37;1.93;;;17.40;94.30;;;;;;5557045;25;20458;-47
2024/04/13 01:03:46;;;;;;;2.03;1.83;;;17.40;94.30;;;;;;5551209;25;20861;-47
2024/04/13 01:06:14;;;;;;;2.57;1.70;;;17.40;94.30;;;;;;5551636;25;20438;-47
2024/04/13 01:08:44;;;;;;;2.53;1.80;;;17.40;94.40;;;;;;5562261;25;20458;-47
2024/04/13 01:11:12;;;;;;;3.50;2.00;;;17.40;94.30;;;;;;5556656;25;20787;-47
2024/04/13 01:13:43;;;;;;;1.97;1.60;;;17.40;94.30;;;;;;5544808;25;21022;-47
2024/04/13 01:16:10;;;;;;;2.40;1.80;;;17.40;94.30;;;;;;5505935;25;20446;-48
2024/04/13 01:18:40;;;;;;;2.10;1.60;;;17.40;94.40;;;;;;5511364;26;20564;-47
2024/04/13 01:21:12;;;;;;;3.00;1.40;;;17.40;94.40;;;;;;5554412;25;20512;-48
2024/04/13 01:23:46;;;;;;;2.47;1.40;;;17.40;94.40;;;;;;5563415;25;20458;-47
2024/04/13 01:26:17;;;;;;;2.53;2.00;;;17.40;94.40;;;;;;5542984;25;20455;-47
2024/04/13 01:28:47;;;;;;;1.70;1.40;;;17.40;94.30;;;;;;5560362;25;20538;-48
2024/04/13 01:31:15;;;;;;;3.53;1.60;;;17.40;94.40;;;;;;5562365;25;20633;-47
2024/04/13 01:33:45;;;;;;;1.87;1.67;;;17.40;94.40;;;;;;5559080;25;20471;-47
2024/04/13 01:36:12;;;;;;;2.90;1.83;;;17.40;94.40;;;;;;5562690;25;20518;-47
2024/04/13 01:38:42;;;;;;;2.10;1.47;;;17.40;94.40;;;;;;5551706;25;20453;-47
2024/04/13 01:41:09;;;;;;;2.50;2.10;;;17.40;94.40;;;;;;5550722;25;20575;-47
2024/04/13 01:43:42;;;;;;;1.90;1.77;;;17.40;94.40;;;;;;5563031;25;20466;-47
2024/04/13 01:46:09;;;;;;;2.33;1.93;;;17.40;94.40;;;;;;5562809;25;20816;-47
2024/04/13 01:48:39;;;;;;;2.27;1.83;;;17.40;94.80;;;;;;5562877;25;21030;-47
2024/04/13 01:51:06;;;;;;;2.60;2.10;;;17.40;94.40;;;;;;5561206;25;20474;-48
2024/04/13 01:53:36;;;;;;;2.43;1.53;;;17.30;94.30;;;;;;5556013;25;20519;-47
2024/04/13 01:56:04;;;;;;;2.03;1.23;;;17.40;94.40;;;;;;5561237;25;21128;-47
2024/04/13 01:58:34;;;;;;;2.43;1.80;;;17.40;94.50;;;;;;5556219;25;20842;-47
2024/04/13 02:01:06;;;;;;;2.30;1.83;;;17.40;94.50;;;;;;5556759;25;20564;-47
2024/04/13 02:03:37;;;;;;;3.27;1.70;;;17.40;94.50;;;;;;5551754;25;20559;-47
2024/04/13 02:06:05;;;;;;;2.53;1.70;;;17.30;94.50;;;;;;5562183;25;20458;-47
2024/04/13 02:08:36;;;;;;;2.03;1.80;;;17.30;94.50;;;;;;5561722;25;20808;-47
2024/04/13 02:11:04;;;;;;;3.33;1.97;;;17.30;94.50;;;;;;5516604;25;20459;-47
2024/04/13 02:13:34;;;;;;;1.80;1.40;;;17.30;94.30;;;;;;5506940;25;20510;-47
2024/04/13 02:16:02;;;;;;;2.00;1.40;;;17.30;94.40;;;;;;5551723;25;20458;-47
2024/04/13 02:18:34;;;;;;;3.10;1.70;;;17.30;94.40;;;;;;5552476;25;20466;-47
2024/04/13 02:21:02;;;;;;;2.30;1.97;;;17.30;94.40;;;;;;5547579;25;20536;-47
2024/04/13 02:23:32;;;;;;;2.00;1.57;;;17.30;94.30;;;;;;5514975;25;20529;-47
2024/04/13 02:26:00;;;;;;;2.40;1.60;;;17.30;94.40;;;;;;5515257;25;21165;-47
2024/04/13 02:28:30;;;;;;;2.03;1.83;;;17.30;94.40;;;;;;5555572;25;21083;-46
2024/04/13 02:30:57;;;;;;;3.40;2.20;;;17.30;94.40;;;;;;5560785;25;20454;-46
2024/04/13 02:33:27;;;;;;;2.03;1.53;;;17.30;94.30;;;;;;5563523;25;20517;-47
2024/04/13 02:36:02;;;;;;;2.33;2.10;;;17.30;94.30;;;;;;5561689;25;20572;-48
2024/04/13 02:38:33;;;;;;;2.27;1.90;;;17.30;94.30;;;;;;5558977;25;21046;-48
2024/04/13 02:41:01;;;;;;;2.50;2.00;;;17.30;94.30;;;;;;5559009;25;20459;-46
2024/04/13 02:43:32;;;;;;;1.80;1.57;;;17.30;94.40;;;;;;5559584;25;20447;-48
2024/04/13 02:46:03;;;;;;;2.00;1.70;;;17.30;94.40;;;;;;5559907;25;20563;-48
2024/04/13 02:48:34;;;;;;;2.30;2.00;;;17.30;94.40;;;;;;5561473;25;20451;-47
2024/04/13 02:51:05;;;;;;;1.80;1.53;;;17.30;94.40;;;;;;5560560;25;20466;-47
2024/04/13 02:53:36;;;;;;;2.50;2.27;;;17.30;94.30;;;;;;5558304;25;20506;-47
2024/04/13 02:56:05;;;;;;;1.90;1.67;;;17.30;94.40;;;;;;5558242;25;20837;-47
2024/04/13 02:58:37;;;;;;;2.97;2.00;;;17.30;94.40;;;;;;5559032;25;20459;-46
2024/04/13 03:01:04;;;;;;;1.90;1.70;;;17.30;94.30;;;;;;5559300;25;20454;-46
2024/04/13 03:03:34;;;;;;;2.03;1.50;;;17.20;94.30;;;;;;5555681;25;20824;-48
2024/04/13 03:06:07;;;;;;;3.03;2.07;;;17.20;94.30;;;;;;5551164;25;20447;-46
2024/04/13 03:08:38;;;;;;;1.50;1.40;;;17.30;94.30;;;;;;5509873;26;20541;-45
2024/04/13 03:11:09;;;;;;;1.97;1.67;;;17.20;94.40;;;;;;5542085;25;20931;-47
2024/04/13 03:13:37;;;;;;;1.70;1.47;;;17.20;94.40;;;;;;5545366;25;20867;-48
2024/04/13 03:16:09;;;;;;;1.97;1.30;;;17.20;94.40;;;;;;5562788;25;20459;-47
2024/04/13 03:18:38;;;;;;;2.53;1.90;;;17.20;94.30;;;;;;5561677;25;20528;-47
2024/04/13 03:21:11;;;;;;;2.27;1.70;;;17.20;94.30;;;;;;5555693;25;20511;-48
2024/04/13 03:23:40;;;;;;;1.53;1.30;;;17.20;94.20;;;;;;5551983;25;20495;-47
2024/04/13 03:26:11;;;;;;;2.30;1.20;;;17.20;94.30;;;;;;5559114;25;20548;-47
2024/04/13 03:28:38;;;;;;;1.90;1.73;;;17.20;94.40;;;;;;5557090;25;20897;-47
2024/04/13 03:31:08;;;;;;;2.40;1.70;;;17.20;94.20;;;;;;5550697;25;20451;-47
2024/04/13 03:33:35;;;;;;;2.20;1.87;;;17.20;94.20;;;;;;5550903;25;20552;-48
2024/04/13 03:36:06;;;;;;;2.57;2.10;;;17.20;94.20;;;;;;5553192;25;20459;-46
2024/04/13 03:38:39;;;;;;;2.20;1.90;;;17.20;94.30;;;;;;5509032;25;21027;-47
2024/04/13 03:41:07;;;;;;;1.90;1.63;;;17.20;94.30;;;;;;5556653;25;20545;-47
2024/04/13 03:43:38;;;;;;;1.60;1.50;;;17.20;94.40;;;;;;5553902;25;20511;-46
2024/04/13 03:46:06;;;;;;;2.00;1.63;;;17.20;94.30;;;;;;5560136;25;21011;-47
2024/04/13 03:48:38;;;;;;;1.57;1.30;;;17.20;94.20;;;;;;5560658;25;20793;-48
2024/04/13 03:51:06;;;;;;;1.97;1.77;;;17.20;94.20;;;;;;5557757;25;20451;-48
2024/04/13 03:53:39;;;;;;;1.97;1.43;;;17.20;94.10;;;;;;5561491;25;20458;-47
2024/04/13 03:56:06;;;;;;;1.43;1.33;;;17.20;94.30;;;;;;5560360;25;20537;-47
2024/04/13 03:58:36;;;;;;;2.57;1.70;;;17.20;94.20;;;;;;5537878;25;20463;-47
2024/04/13 04:01:04;;;;;;;1.97;1.57;;;17.20;94.20;;;;;;5559630;25;20786;-47
2024/04/13 04:03:35;;;;;;;2.93;1.50;;;17.20;94.10;;;;;;5560626;25;20455;-47
2024/04/13 04:06:04;;;;;;;2.50;2.00;;;17.20;94.10;;;;;;5559163;25;20458;-47
2024/04/13 04:08:35;;;;;;;2.00;1.70;;;17.10;94.10;;;;;;5558209;25;20872;-48
2024/04/13 04:11:04;;;;;;;2.07;1.80;;;17.20;94.10;;;;;;5559569;25;20563;-46
2024/04/13 04:13:34;;;;;;;1.60;1.50;;;17.20;94.20;;;;;;5552489;25;20906;-48
2024/04/13 04:16:02;;;;;;;1.90;1.80;;;17.10;94.20;;;;;;5558913;25;20458;-48
2024/04/13 04:18:32;;;;;;;1.70;1.50;;;17.10;94.10;;;;;;5553718;25;20459;-48
2024/04/13 04:21:00;;;;;;;2.40;1.77;;;17.20;94.10;;;;;;5563965;25;21070;-48
2024/04/13 04:23:30;;;;;;;1.80;1.60;;;17.10;94.00;;;;;;5561117;25;20454;-48
2024/04/13 04:25:57;;;;;;;2.33;2.00;;;17.10;94.20;;;;;;5553851;25;20450;-46
2024/04/13 04:28:29;;;;;;;2.40;1.90;;;17.10;94.10;;;;;;5552894;25;20464;-49
2024/04/13 04:31:10;;;;;;;2.43;1.97;;;17.10;94.00;;;;;;5561037;25;20457;-47
2024/04/13 04:33:40;;;;;;;2.53;1.83;;;17.10;94.10;;;;;;5561214;25;20446;-48
2024/04/13 04:36:08;;;;;;;1.97;1.70;;;17.10;94.00;;;;;;5560576;25;20454;-47
2024/04/13 04:38:38;;;;;;;2.83;1.90;;;17.10;94.10;;;;;;5551011;25;20452;-47
2024/04/13 04:41:05;;;;;;;2.10;1.70;;;17.10;94.00;;;;;;5557646;25;20556;-48
2024/04/13 04:43:38;;;;;;;2.77;1.80;;;17.10;94.00;;;;;;5553653;25;20454;-48
2024/04/13 04:46:07;;;;;;;2.37;1.83;;;17.10;94.10;;;;;;5568489;25;20563;-47
2024/04/13 04:48:38;;;;;;;2.00;1.60;;;17.10;94.00;;;;;;5560387;25;20785;-47
2024/04/13 04:51:05;;;;;;;2.30;1.47;;;17.10;94.10;;;;;;5556868;25;20446;-47
2024/04/13 04:53:35;;;;;;;1.77;1.43;;;17.10;94.20;;;;;;5558554;25;20943;-47
2024/04/13 04:56:03;;;;;;;2.67;1.83;;;17.10;94.20;;;;;;5557079;25;20458;-47
2024/04/13 04:58:33;;;;;;;1.90;1.70;;;17.10;94.20;;;;;;5548987;25;20466;-47
2024/04/13 05:01:03;;;;;;;2.30;2.03;;;17.10;94.10;;;;;;5547150;25;21087;-47
2024/04/13 05:03:33;;;;;;;1.70;1.47;;;17.10;94.10;;;;;;5522194;25;20494;-47
2024/04/13 05:06:01;;;;;;;2.03;1.80;;;17.10;94.10;;;;;;5554134;25;20804;-47
2024/04/13 05:08:31;;;;;;;1.77;1.60;;;17.10;94.10;;;;;;5524945;25;20499;-47
2024/04/13 05:10:58;;;;;;;2.43;1.60;;;17.10;94.00;;;;;;5558370;25;20443;-47
2024/04/13 05:13:28;;;;;;;2.50;1.50;;;17.10;94.10;;;;;;5510818;25;20516;-47
2024/04/13 05:15:56;;;;;;;1.90;1.50;;;17.10;94.10;;;;;;5558026;25;21006;-46
2024/04/13 05:18:28;;;;;;;2.47;1.70;;;17.10;94.20;;;;;;5562628;25;20443;-48
2024/04/13 05:20:56;;;;;;;1.67;1.47;;;17.10;94.20;;;;;;5557520;25;20551;-47
2024/04/13 05:23:25;;;;;;;2.53;1.77;;;17.00;94.30;;;;;;5557504;25;20546;-47
2024/04/13 05:25:53;;;;;;;1.73;1.40;;;17.00;94.10;;;;;;5517611;25;20466;-47
2024/04/13 05:28:23;;;;;;;2.43;1.77;;;17.10;94.60;;;;;;5555655;25;20523;-48
2024/04/13 05:30:56;;;;;;;3.67;2.20;;;17.00;94.10;;;;;;5558844;25;21017;-48
2024/04/13 05:33:29;;;;;;;2.33;2.13;;;17.00;94.20;;;;;;5559548;25;20545;-45
2024/04/13 05:35:58;;;;;;;2.00;1.80;;;17.00;94.20;;;;;;5564940;25;20531;-47
2024/04/13 05:38:33;;;;;;;1.83;1.50;;;17.00;94.20;;;;;;5554656;25;20454;-48
2024/04/13 05:41:00;;;;;;;2.17;1.70;;;17.00;94.70;;;;;;5562435;25;20453;-48
2024/04/13 05:43:30;;;;;;;2.10;1.57;;;17.00;94.20;;;;;;5549663;25;20451;-48
2024/04/13 05:46:01;;;;;;;2.63;1.30;;;17.00;94.20;;;;;;5561310;25;20794;-47
2024/04/13 05:48:33;;;;;;;1.90;1.70;;;17.00;94.30;;;;;;5557934;25;20550;-46
2024/04/13 05:51:00;;;;;;;2.10;1.90;;;17.00;94.20;;;;;;5560068;25;20459;-49
2024/04/13 05:53:31;;;;;;;2.20;1.87;;;17.00;94.30;;;;;;5557549;25;20455;-48
2024/04/13 05:56:04;;;;;;;1.33;1.23;;;17.00;94.30;;;;;;5556585;25;20506;-49
2024/04/13 05:58:35;;;;;;;2.90;2.20;;;17.00;94.30;;;;;;5548908;25;20793;-47
2024/04/13 06:01:03;;;;;;;2.17;1.97;;;17.00;94.30;;;;;;5556042;25;20618;-47
2024/04/13 06:03:36;;;;;;;2.30;1.70;;;17.00;94.40;;;;;;5556905;25;20884;-48
2024/04/13 06:06:03;;;;;;;2.13;1.90;;;17.00;94.40;;;;;;5548585;25;20451;-48
2024/04/13 06:08:33;;;;;;;2.40;2.10;;;17.00;94.40;;;;;;5560835;25;20458;-48
2024/04/13 06:11:02;;;;;;;2.40;2.13;;;17.00;94.50;;;;;;5560936;25;20510;-52
2024/04/13 06:13:31;;;;;;;2.53;1.60;;;17.00;94.60;;;;;;5561139;25;20519;-48
2024/04/13 06:16:02;;;;;;;2.23;1.90;;;17.00;94.60;;;;;;5554845;25;20772;-49
2024/04/13 06:18:34;;;;;;;2.97;2.33;;;17.00;94.60;;;;;;5562210;25;20507;-49
2024/04/13 06:21:02;;;;;;;3.50;2.27;;;17.00;94.60;;;;;;5560316;25;20943;-50
2024/04/13 06:23:32;;;;;;;2.10;1.90;;;17.00;94.70;;;;;;5551141;25;20469;-49
2024/04/13 06:25:59;;;;;;;1.80;1.37;;;17.00;94.70;;;;;;5557204;25;20450;-48
2024/04/13 06:28:30;;;;;;;3.07;2.20;;;17.00;94.80;;;;;;5552759;25;20515;-48
2024/04/13 06:30:57;;;;;;;2.83;2.00;;;17.00;94.80;;;;;;5561056;25;20938;-48
2024/04/13 06:33:27;;;;;;;3.43;1.73;;;17.00;94.80;;;;;;5561289;25;20449;-49
2024/04/13 06:35:57;;;;;;;2.47;1.73;;;17.00;94.90;;;;;;5561297;25;20521;-49
2024/04/13 06:38:27;;;;;;;3.00;2.20;;;17.00;94.90;;;;;;5557224;25;20511;-48
2024/04/13 06:40:54;;;;;;;4.30;3.00;;;17.00;95.00;;;;;;5561528;25;20533;-48
2024/04/13 06:43:24;;;;;;;3.90;2.37;;;17.00;95.00;;;;;;5552732;25;20569;-48
2024/04/13 06:45:52;;;;;;;2.47;2.17;;;17.00;95.20;;;;;;5560735;25;20458;-48
2024/04/13 06:48:21;;;;;;;2.30;2.07;;;17.00;95.10;;;;;;5560096;25;20768;-48
2024/04/13 06:50:49;;;;;;;1.70;1.60;;;17.00;95.10;;;;;;5560813;25;20573;-47
2024/04/13 06:53:23;;;;;;;2.00;1.60;;;17.00;95.10;;;;;;5553198;25;20451;-48
2024/04/13 06:55:50;;;;;;;2.43;1.20;;;17.00;95.00;;;;;;5549390;25;20871;-49
2024/04/13 06:58:23;;;;;;;1.40;1.30;;;17.00;94.90;;;;;;5556848;25;20573;-48
2024/04/13 07:00:56;;;;;;;2.60;1.67;;;17.00;94.90;;;;;;5559542;25;20518;-49
2024/04/13 07:03:27;;;;;;;1.60;1.20;;;17.00;94.80;;;;;;5561308;25;20856;-47
2024/04/13 07:05:56;;;;;;;1.60;1.30;;;17.10;94.80;;;;;;5555951;25;21146;-49
2024/04/13 07:08:29;;;;;;;1.70;1.60;;;17.10;94.80;;;;;;5547426;25;20509;-49
2024/04/13 07:10:57;;;;;;;2.00;1.63;;;17.10;94.80;;;;;;5559780;25;20518;-49
2024/04/13 07:13:27;;;;;;;1.90;1.40;;;17.10;94.80;;;;;;5563803;25;20463;-47
2024/04/13 07:15:54;;;;;;;1.60;1.40;;;17.10;94.80;;;;;;5550962;25;20462;-48
2024/04/13 07:18:24;;;;;;;1.50;1.37;;;17.10;94.70;;;;;;5567490;25;20441;-48
2024/04/13 07:20:51;;;;;;;6.70;2.13;;;17.10;94.60;;;;;;5562559;25;20528;-47
2024/04/13 07:23:21;;;;;;;2.70;1.57;;;17.20;94.80;;;;;;5511779;25;20518;-48
2024/04/13 07:25:59;;;;;;;2.33;1.97;;;17.20;94.80;;;;;;5549842;25;20529;-49
2024/04/13 07:28:29;;;;;;;2.23;1.60;;;17.20;94.80;;;;;;5545532;25;20568;-51
2024/04/13 07:30:57;;;;;;;2.50;1.50;;;17.20;94.80;;;;;;5564419;25;20516;-49
2024/04/13 07:33:27;;;;;;;2.77;1.50;;;17.20;94.70;;;;;;5561332;25;20552;-47
2024/04/13 07:35:54;;;;;;;3.00;1.83;;;17.20;94.70;;;;;;5551983;25;20532;-48
2024/04/13 07:38:24;;;;;;;2.10;1.73;;;17.30;94.60;;;;;;5564387;25;20470;-47
2024/04/13 07:40:52;;;;;;;4.60;1.93;;;17.20;94.60;;;;;;5563061;25;20572;-47
2024/04/13 07:43:25;;;;;;;3.00;1.57;;;17.20;94.60;;;;;;5551560;25;20460;-50
2024/04/13 07:45:52;;;;;;;4.27;1.37;;;17.30;94.60;;;;;;5556275;25;20504;-50
2024/04/13 07:48:22;;;;;;;7.50;1.83;;;17.30;94.50;;;;;;5552446;25;20956;-50
2024/04/13 07:50:50;;;;;;;3.77;2.07;;;17.30;94.60;;;;;;5564963;25;21242;-49
2024/04/13 07:53:20;;;;;;;2.60;1.77;;;17.40;94.50;;;;;;5564200;25;20446;-49
2024/04/13 07:55:48;;;;;;;4.43;2.13;;;17.40;94.40;;;;;;5553971;25;20466;-48
2024/04/13 07:58:18;;;;;;;2.10;1.73;;;17.30;94.50;;;;;;5543638;25;20581;-51
2024/04/13 08:00:49;;;;;;;3.40;1.80;;;17.30;94.50;;;;;;5551282;25;20462;-51
2024/04/13 08:03:20;;;;;;;4.63;2.80;;;17.30;94.50;;;;;;5546051;25;20888;-48
2024/04/13 08:05:47;;;;;;;3.10;1.90;;;17.30;94.90;;;;;;5555451;25;20450;-50
2024/04/13 08:08:17;;;;;;;3.10;1.67;;;17.40;94.50;;;;;;5553035;25;20537;-50
2024/04/13 08:10:45;;;;;;;2.10;1.63;;;17.30;94.50;;;;;;5559860;25;21007;-50
2024/04/13 08:13:15;;;;;;;3.70;2.07;;;17.30;94.50;;;;;;5553885;25;20570;-49
2024/04/13 08:15:42;;;;;;;3.10;1.73;;;17.40;94.50;;;;;;5555010;25;20459;-50
2024/04/13 08:18:15;;;;;;;2.63;1.97;;;17.30;94.50;;;;;;5563213;25;20537;-50
2024/04/13 08:20:43;;;;;;;2.43;1.87;;;17.30;94.50;;;;;;5551223;25;20446;-49
2024/04/13 08:23:14;;;;;;;2.23;1.40;;;17.30;94.50;;;;;;5555431;25;21094;-48
2024/04/13 08:25:42;;;;;;;2.13;1.30;;;17.30;94.40;;;;;;5542279;25;20450;-47
2024/04/13 08:28:12;;;;;;;4.80;1.90;;;17.30;94.40;;;;;;5552978;25;21244;-49
2024/04/13 08:30:39;;;;;;;1.90;1.70;;;17.30;94.40;;;;;;5542822;25;20871;-47
2024/04/13 08:33:09;;;;;;;2.17;1.80;;;17.30;94.40;;;;;;5559619;25;20459;-48
2024/04/13 08:35:42;;;;;;;2.37;1.33;;;17.30;94.40;;;;;;5551879;25;20466;-46
2024/04/13 08:38:09;;;;;;;2.53;1.63;;;17.30;94.40;;;;;;5556939;25;20529;-49
2024/04/13 08:40:42;;;;;;;2.47;1.30;;;17.30;94.40;;;;;;5546227;25;20455;-47
2024/04/13 08:43:09;;;;;;;1.73;1.50;;;17.30;94.40;;;;;;5547919;25;20463;-51
2024/04/13 08:45:39;;;;;;;3.10;1.73;;;17.30;94.40;;;;;;5550010;25;20466;-49
2024/04/13 08:48:10;;;;;;;1.70;1.60;;;17.30;94.30;;;;;;5546087;25;20832;-51
2024/04/13 08:50:44;;;;;;;4.67;1.80;;;17.30;94.30;;;;;;5552714;25;20527;-46
2024/04/13 08:53:12;;;;;;;1.40;1.10;;;17.40;94.30;;;;;;5555676;25;20526;-48
2024/04/13 08:55:43;;;;;;;1.83;1.47;;;17.40;94.40;;;;;;5549944;25;20478;-47
2024/04/13 08:58:14;;;;;;;2.80;1.70;;;17.30;94.30;;;;;;5543024;25;20893;-47
2024/04/13 09:00:50;;;;;;;2.00;1.70;;;17.30;94.30;;;;;;5539773;25;20561;-47
2024/04/13 09:03:21;;;;;;;1.50;1.40;;;17.40;94.30;;;;;;5549458;25;20576;-48
2024/04/13 09:05:54;;;;;;;2.10;1.43;;;17.40;94.30;;;;;;5539568;25;21326;-47
2024/04/13 09:08:22;;;;;;;1.90;1.30;;;17.40;94.30;;;;;;5546101;25;20504;-47
2024/04/13 09:10:56;;;;;;;1.80;1.37;;;17.40;94.10;;;;;;5552355;25;21018;-47
2024/04/13 09:13:23;;;;;;;2.73;1.77;;;17.40;94.20;;;;;;5546561;25;20457;-47
2024/04/13 09:15:53;;;;;;;2.20;1.67;;;17.40;94.20;;;;;;5544063;25;21187;-46
2024/04/13 09:18:21;;;;;;;2.53;1.80;;;17.40;94.20;;;;;;5559252;25;20522;-46
2024/04/13 09:20:56;;;;;;;2.67;1.43;;;17.40;94.20;;;;;;5551070;25;20517;-48
2024/04/13 09:23:28;;;;;;;2.10;1.60;;;17.40;94.20;;;;;;5541660;25;20507;-46
2024/04/13 09:26:05;;;;;;;2.33;1.40;;;17.40;94.30;;;;;;5550412;25;21030;-47
2024/04/13 09:28:39;;;;;;;2.70;1.70;;;17.40;94.30;;;;;;5547236;25;20564;-48
2024/04/13 09:31:11;;;;;;;2.67;1.83;;;17.40;94.30;;;;;;5554175;25;20470;-47
2024/04/13 09:33:39;;;;;;;2.50;1.60;;;17.40;94.30;;;;;;5555853;25;20510;-45
2024/04/13 09:36:12;;;;;;;1.80;1.70;;;17.40;94.30;;;;;;5545804;25;20500;-46
2024/04/13 09:38:45;;;;;;;2.03;1.37;;;17.40;94.30;;;;;;5555575;25;20474;-47
2024/04/13 09:41:15;;;;;;;1.43;1.20;;;17.40;94.30;;;;;;5558095;25;21263;-47
2024/04/13 09:43:46;;;;;;;2.23;1.67;;;17.40;94.30;;;;;;5547454;25;20550;-47
2024/04/13 09:46:16;;;;;;;4.17;1.60;;;17.40;94.30;;;;;;5554905;25;21171;-46
2024/04/13 09:48:43;;;;;;;2.33;1.40;;;17.40;94.30;;;;;;5555091;25;20455;-46
2024/04/13 09:51:16;;;;;;;1.83;1.57;;;17.40;94.30;;;;;;5567741;25;21206;-46
2024/04/13 09:53:45;;;;;;;2.17;1.40;;;17.40;94.30;;;;;;5552392;25;21194;-46
2024/04/13 09:56:14;;;;;;;8.83;2.10;;;17.40;94.30;;;;;;5552040;25;20462;-45
2024/04/13 09:58:42;;;;;;;2.90;1.70;;;17.40;94.60;;;;;;5550995;25;20575;-47
2024/04/13 10:01:12;;;;;;;3.50;2.70;;;17.50;94.30;;;;;;5556643;25;20524;-46
2024/04/13 10:03:39;;;;;;;4.37;2.83;;;17.60;94.40;;;;;;5559638;25;20458;-46
2024/04/13 10:06:15;;;;;;;4.63;2.70;;;17.70;94.80;;;;;;5556110;25;20925;-46
2024/04/13 10:08:47;;;;;;;8.87;3.13;;;17.80;94.90;;;;;;5557896;25;20453;-46
2024/04/13 10:11:19;;;;;;;6.37;2.83;;;17.90;95.00;;;;;;5540758;25;20572;-46
2024/04/13 10:13:49;;;;;;;7.73;3.73;;;18.00;94.80;;;;;;5547874;25;20864;-47
2024/04/13 10:16:20;;;;;;;5.60;2.93;;;18.10;94.90;;;;;;5559367;25;20451;-49
2024/04/13 10:18:48;;;;;;;3.70;2.40;;;18.10;94.50;;;;;;5540791;25;20487;-49
2024/04/13 10:21:18;;;;;;;4.53;2.83;;;18.10;94.10;;;;;;5545410;25;20587;-46
2024/04/13 10:23:47;;;;;;;3.30;2.77;;;18.20;94.30;;;;;;5550809;25;20466;-46
2024/04/13 10:26:27;;;;;;;3.47;2.30;;;18.30;93.40;;;;;;5537398;25;20466;-46
2024/04/13 10:28:57;;;;;;;3.50;2.50;;;18.10;93.80;;;;;;5544973;25;20571;-46
2024/04/13 10:31:29;;;;;;;6.67;3.27;;;18.10;94.10;;;;;;5552595;25;21057;-47
2024/04/13 10:33:57;;;;;;;5.27;2.53;;;18.20;94.00;;;;;;5548865;25;20447;-46
2024/04/13 10:36:31;;;;;;;3.10;2.20;;;18.20;93.60;;;;;;5527471;25;20454;-46
2024/04/13 10:39:02;;;;;;;9.70;2.83;;;18.20;93.70;;;;;;5559779;25;20458;-46
2024/04/13 10:41:34;;;;;;;6.37;2.80;;;18.20;93.40;;;;;;5556424;25;20575;-48
2024/04/13 10:44:02;;;;;;;5.03;2.17;;;18.00;93.70;;;;;;5549522;25;20907;-48
2024/04/13 10:46:33;;;;;;;5.20;3.00;;;18.00;93.70;;;;;;5559557;25;20571;-46
2024/04/13 10:49:01;;;;;;;4.50;3.10;;;18.00;93.90;;;;;;5559397;25;20510;-48
2024/04/13 10:51:31;;;;;;;4.83;3.30;;;18.10;94.00;;;;;;5553341;25;20458;-48
2024/04/13 10:54:01;;;;;;;4.53;3.60;;;18.10;94.20;;;;;;5561396;25;20470;-48
2024/04/13 10:56:31;;;;;;;6.63;3.90;;;18.20;94.30;;;;;;5556042;25;21096;-47
2024/04/13 10:58:58;;;;;;;5.90;4.13;;;18.20;94.50;;;;;;5551509;25;21080;-48
2024/04/13 11:01:28;;;;;;;5.53;3.47;;;18.30;94.60;;;;;;5561768;25;20435;-49
2024/04/13 11:04:03;;;;;;;4.47;3.53;;;18.30;94.40;;;;;;5550421;25;20463;-49
2024/04/13 11:06:34;;;;;;;3.47;3.17;;;18.30;94.30;;;;;;5554514;25;21450;-49
2024/04/13 11:09:04;;;;;;;7.37;4.23;;;18.30;94.20;;;;;;5550473;25;21011;-48
2024/04/13 11:11:34;;;;;;;7.80;3.50;;;18.40;94.20;;;;;;5554888;25;20468;-46
2024/04/13 11:14:01;;;;;;;4.33;3.50;;;18.30;94.10;;;;;;5549692;25;20802;-47
2024/04/13 11:16:31;;;;;;;3.97;3.33;;;18.40;94.10;;;;;;5564964;25;20495;-48
2024/04/13 11:18:58;;;;;;;4.57;3.50;;;18.40;94.10;;;;;;5555081;25;20467;-48
2024/04/13 11:21:29;;;;;;;3.60;3.30;;;18.40;94.00;;;;;;5548149;25;20554;-48
2024/04/13 11:23:58;;;;;;;5.20;3.57;;;18.40;93.90;;;;;;5552366;25;20447;-48
2024/04/13 11:26:31;;;;;;;3.30;2.93;;;18.40;93.70;;;;;;5554908;25;20532;-48
2024/04/13 11:28:58;;;;;;;4.23;2.70;;;18.50;93.70;;;;;;5558354;25;20864;-48
2024/04/13 11:31:28;;;;;;;5.00;3.03;;;18.50;93.50;;;;;;5559394;25;20823;-47
2024/04/13 11:33:56;;;;;;;7.00;2.70;;;18.50;93.30;;;;;;5506284;25;20452;-46
2024/04/13 11:36:25;;;;;;;4.83;2.80;;;18.50;93.30;;;;;;5539155;25;21020;-47
2024/04/13 11:38:53;;;;;;;4.53;2.87;;;18.40;93.30;;;;;;5557173;25;20564;-47
2024/04/13 11:41:24;;;;;;;5.67;2.90;;;18.40;93.30;;;;;;5552946;25;20466;-47
2024/04/13 11:43:57;;;;;;;5.40;2.90;;;18.40;93.50;;;;;;5551087;25;20466;-46
2024/04/13 11:46:27;;;;;;;4.80;2.90;;;18.40;93.50;;;;;;5557059;25;20490;-46
2024/04/13 11:48:55;;;;;;;3.60;2.40;;;18.50;93.90;;;;;;5554257;25;20455;-47
2024/04/13 11:51:27;;;;;;;6.57;3.10;;;18.50;92.50;;;;;;5553052;25;20579;-47
2024/04/13 11:53:55;;;;;;;5.67;3.00;;;18.60;92.80;;;;;;5547837;25;20452;-47
2024/04/13 11:56:25;;;;;;;3.60;2.83;;;18.60;92.50;;;;;;5553091;25;20466;-47
2024/04/13 11:58:53;;;;;;;4.40;2.80;;;18.70;91.80;;;;;;5549201;25;20462;-47
2024/04/13 12:01:26;;;;;;;3.27;2.97;;;18.70;91.90;;;;;;5545908;25;20802;-47
2024/04/13 12:03:53;;;;;;;6.00;2.57;;;18.80;91.80;;;;;;5550486;25;21139;-47
2024/04/13 12:06:24;;;;;;;3.40;2.83;;;18.80;91.80;;;;;;5545104;25;20567;-47
2024/04/13 12:08:51;;;;;;;3.80;2.70;;;18.90;91.40;;;;;;5551679;25;21022;-46
2024/04/13 12:11:23;;;;;;;6.43;2.83;;;18.90;91.20;;;;;;5544457;25;20467;-47
2024/04/13 12:13:51;;;;;;;5.33;3.20;;;18.90;91.20;;;;;;5517986;25;20523;-47
2024/04/13 12:16:21;;;;;;;4.30;2.93;;;18.90;91.00;;;;;;5541614;25;20581;-46
2024/04/13 12:18:51;;;;;;;3.80;2.80;;;18.90;90.70;;;;;;5552015;25;20552;-48
2024/04/13 12:21:21;;;;;;;5.00;2.57;;;19.00;90.80;;;;;;5551804;25;20451;-48
2024/04/13 12:23:48;;;;;;;6.20;3.00;;;19.00;90.70;;;;;;5557340;25;20443;-51
2024/04/13 12:26:19;;;;;;;2.90;2.40;;;18.90;90.70;;;;;;5551690;25;20439;-49
2024/04/13 12:28:47;;;;;;;3.20;2.40;;;18.80;90.70;;;;;;5542880;25;20443;-48
2024/04/13 12:31:18;;;;;;;6.17;2.57;;;18.70;91.10;;;;;;5559184;25;20454;-49
2024/04/13 12:33:45;;;;;;;3.20;2.17;;;18.60;91.40;;;;;;5510136;25;20463;-50
2024/04/13 12:36:17;;;;;;;3.97;2.80;;;18.40;91.60;;;;;;5554124;25;20446;-49
2024/04/13 12:38:45;;;;;;;3.80;2.40;;;18.40;92.00;;;;;;5554659;25;20447;-48
2024/04/13 12:41:15;;;;;;;4.47;2.53;;;18.30;92.20;;;;;;5559373;25;21061;-49
2024/04/13 12:43:44;;;;;;;3.80;2.50;;;18.30;92.30;;;;;;5550656;25;20466;-50
2024/04/13 12:46:15;;;;;;;4.13;2.40;;;18.20;92.50;;;;;;5556442;25;20733;-49
2024/04/13 12:48:42;;;;;;;4.10;2.77;;;18.20;92.70;;;;;;5544998;25;20455;-47
2024/04/13 12:51:13;;;;;;;4.67;2.70;;;18.20;93.20;;;;;;5514800;25;20460;-50
2024/04/13 12:53:44;;;;;;;6.53;2.90;;;18.20;93.00;;;;;;5557657;25;20522;-49
2024/04/13 12:56:14;;;;;;;3.77;2.70;;;18.20;93.00;;;;;;5557317;25;20484;-49
2024/04/13 12:58:41;;;;;;;3.30;2.57;;;18.20;93.00;;;;;;5550672;25;20460;-50
2024/04/13 13:01:11;;;;;;;3.40;2.70;;;18.20;93.10;;;;;;5559390;25;20462;-49